sensor_id;sensor_type;location;lat;lon;timestamp;P1;durP1;ratioP1;P2;durP2;ratioP2
71095;SDS011;58753;49.440;11.126;2022-11-06T00:02:23;13.10;;;5.80;;
71095;SDS011;58753;49.440;11.126;2022-11-06T00:04:49;13.50;;;6.03;;
71095;SDS011;58753;49.440;11.126;2022-11-06T00:07:14;11.97;;;5.17;;
71095;SDS011;58753;49.440;11.126;2022-11-06T00:09:39;11.57;;;3.95;;
71095;SDS011;58753;49.440;11.126;2022-11-06T00:12:05;16.90;;;4.87;;
71095;SDS011;58753;49.440;11.126;2022-11-06T00:14:31;11.10;;;5.33;;
71095;SDS011;58753;49.440;11.126;2022-11-06T00:16:56;10.77;;;5.35;;
71095;SDS011;58753;49.440;11.126;2022-11-06T00:19:21;10.83;;;5.93;;
71095;SDS011;58753;49.440;11.126;2022-11-06T00:21:47;9.53;;;5.17;;
71095;SDS011;58753;49.440;11.126;2022-11-06T00:24:12;12.90;;;5.37;;
71095;SDS011;58753;49.440;11.126;2022-11-06T00:26:39;9.77;;;4.38;;
71095;SDS011;58753;49.440;11.126;2022-11-06T00:29:05;11.15;;;4.78;;
71095;SDS011;58753;49.440;11.126;2022-11-06T00:31:32;12.27;;;4.90;;
71095;SDS011;58753;49.440;11.126;2022-11-06T00:34:01;11.02;;;4.55;;
71095;SDS011;58753;49.440;11.126;2022-11-06T00:36:27;14.75;;;5.65;;
71095;SDS011;58753;49.440;11.126;2022-11-06T00:38:57;11.30;;;5.30;;
71095;SDS011;58753;49.440;11.126;2022-11-06T00:41:23;14.52;;;5.10;;
71095;SDS011;58753;49.440;11.126;2022-11-06T00:43:49;12.60;;;5.43;;
71095;SDS011;58753;49.440;11.126;2022-11-06T00:46:17;11.23;;;5.40;;
71095;SDS011;58753;49.440;11.126;2022-11-06T00:48:43;11.67;;;4.33;;
71095;SDS011;58753;49.440;11.126;2022-11-06T00:51:10;11.60;;;5.03;;
71095;SDS011;58753;49.440;11.126;2022-11-06T00:53:37;12.87;;;4.40;;
71095;SDS011;58753;49.440;11.126;2022-11-06T00:56:14;11.82;;;5.22;;
71095;SDS011;58753;49.440;11.126;2022-11-06T00:58:41;12.30;;;5.47;;
71095;SDS011;58753;49.440;11.126;2022-11-06T01:03:54;11.32;;;4.63;;
71095;SDS011;58753;49.440;11.126;2022-11-06T01:06:22;13.00;;;5.23;;
71095;SDS011;58753;49.440;11.126;2022-11-06T01:08:49;10.95;;;4.78;;
71095;SDS011;58753;49.440;11.126;2022-11-06T01:11:16;10.95;;;4.85;;
71095;SDS011;58753;49.440;11.126;2022-11-06T01:13:44;10.93;;;5.18;;
71095;SDS011;58753;49.440;11.126;2022-11-06T01:16:11;11.32;;;5.63;;
71095;SDS011;58753;49.440;11.126;2022-11-06T01:18:39;11.77;;;5.40;;
71095;SDS011;58753;49.440;11.126;2022-11-06T01:21:05;11.88;;;5.20;;
71095;SDS011;58753;49.440;11.126;2022-11-06T01:23:32;16.08;;;5.50;;
71095;SDS011;58753;49.440;11.126;2022-11-06T01:25:58;11.60;;;5.53;;
71095;SDS011;58753;49.440;11.126;2022-11-06T01:28:28;10.40;;;4.65;;
71095;SDS011;58753;49.440;11.126;2022-11-06T01:30:54;13.88;;;5.90;;
71095;SDS011;58753;49.440;11.126;2022-11-06T01:33:19;14.13;;;5.17;;
71095;SDS011;58753;49.440;11.126;2022-11-06T01:35:46;9.88;;;5.05;;
71095;SDS011;58753;49.440;11.126;2022-11-06T01:38:13;10.68;;;4.68;;
71095;SDS011;58753;49.440;11.126;2022-11-06T01:40:48;11.27;;;4.73;;
71095;SDS011;58753;49.440;11.126;2022-11-06T01:43:14;10.57;;;5.20;;
71095;SDS011;58753;49.440;11.126;2022-11-06T01:45:40;12.60;;;5.30;;
71095;SDS011;58753;49.440;11.126;2022-11-06T01:48:08;11.07;;;5.03;;
71095;SDS011;58753;49.440;11.126;2022-11-06T01:50:34;10.38;;;5.70;;
71095;SDS011;58753;49.440;11.126;2022-11-06T01:53:00;13.13;;;5.70;;
71095;SDS011;58753;49.440;11.126;2022-11-06T01:55:27;12.80;;;5.32;;
71095;SDS011;58753;49.440;11.126;2022-11-06T01:57:56;13.17;;;4.73;;
71095;SDS011;58753;49.440;11.126;2022-11-06T02:00:24;10.98;;;5.10;;
71095;SDS011;58753;49.440;11.126;2022-11-06T02:02:50;11.45;;;5.07;;
71095;SDS011;58753;49.440;11.126;2022-11-06T02:05:16;11.00;;;4.80;;
71095;SDS011;58753;49.440;11.126;2022-11-06T02:07:41;16.05;;;6.00;;
71095;SDS011;58753;49.440;11.126;2022-11-06T02:10:08;13.40;;;5.68;;
71095;SDS011;58753;49.440;11.126;2022-11-06T02:15:25;13.38;;;5.90;;
71095;SDS011;58753;49.440;11.126;2022-11-06T02:20:28;13.52;;;5.20;;
71095;SDS011;58753;49.440;11.126;2022-11-06T02:23:02;14.70;;;6.13;;
71095;SDS011;58753;49.440;11.126;2022-11-06T02:25:53;12.17;;;6.07;;
71095;SDS011;58753;49.440;11.126;2022-11-06T02:28:33;15.23;;;6.95;;
71095;SDS011;58753;49.440;11.126;2022-11-06T02:31:06;12.48;;;5.15;;
71095;SDS011;58753;49.440;11.126;2022-11-06T02:33:39;16.23;;;6.40;;
71095;SDS011;58753;49.440;11.126;2022-11-06T02:36:10;13.30;;;6.43;;
71095;SDS011;58753;49.440;11.126;2022-11-06T02:38:40;15.13;;;7.23;;
71095;SDS011;58753;49.440;11.126;2022-11-06T02:41:12;18.20;;;6.75;;
71095;SDS011;58753;49.440;11.126;2022-11-06T02:43:43;14.60;;;7.18;;
71095;SDS011;58753;49.440;11.126;2022-11-06T02:46:23;20.40;;;7.65;;
71095;SDS011;58753;49.440;11.126;2022-11-06T02:49:03;14.68;;;7.00;;
71095;SDS011;58753;49.440;11.126;2022-11-06T02:51:32;14.77;;;7.20;;
71095;SDS011;58753;49.440;11.126;2022-11-06T02:54:02;14.30;;;6.63;;
71095;SDS011;58753;49.440;11.126;2022-11-06T02:56:32;16.08;;;6.50;;
71095;SDS011;58753;49.440;11.126;2022-11-06T02:59:02;14.38;;;7.20;;
71095;SDS011;58753;49.440;11.126;2022-11-06T03:04:17;17.33;;;7.97;;
71095;SDS011;58753;49.440;11.126;2022-11-06T03:06:48;20.35;;;6.93;;
71095;SDS011;58753;49.440;11.126;2022-11-06T03:09:18;18.05;;;6.43;;
71095;SDS011;58753;49.440;11.126;2022-11-06T03:11:49;15.98;;;6.65;;
71095;SDS011;58753;49.440;11.126;2022-11-06T03:14:40;15.23;;;6.18;;
71095;SDS011;58753;49.440;11.126;2022-11-06T03:17:17;18.83;;;6.73;;
71095;SDS011;58753;49.440;11.126;2022-11-06T03:19:51;17.92;;;6.72;;
71095;SDS011;58753;49.440;11.126;2022-11-06T03:22:34;16.42;;;6.57;;
71095;SDS011;58753;49.440;11.126;2022-11-06T03:25:15;17.55;;;7.47;;
71095;SDS011;58753;49.440;11.126;2022-11-06T03:27:48;15.82;;;7.22;;
71095;SDS011;58753;49.440;11.126;2022-11-06T03:30:16;16.70;;;6.60;;
71095;SDS011;58753;49.440;11.126;2022-11-06T03:38:30;14.70;;;6.40;;
71095;SDS011;58753;49.440;11.126;2022-11-06T03:41:07;13.07;;;6.45;;
71095;SDS011;58753;49.440;11.126;2022-11-06T03:43:40;13.50;;;5.78;;
71095;SDS011;58753;49.440;11.126;2022-11-06T03:46:10;14.93;;;6.78;;
71095;SDS011;58753;49.440;11.126;2022-11-06T03:48:45;14.18;;;6.75;;
71095;SDS011;58753;49.440;11.126;2022-11-06T03:51:18;15.13;;;5.90;;
71095;SDS011;58753;49.440;11.126;2022-11-06T03:53:57;13.43;;;6.25;;
71095;SDS011;58753;49.440;11.126;2022-11-06T03:59:04;14.63;;;4.72;;
71095;SDS011;58753;49.440;11.126;2022-11-06T04:01:42;10.55;;;5.20;;
71095;SDS011;58753;49.440;11.126;2022-11-06T04:04:11;13.47;;;5.20;;
71095;SDS011;58753;49.440;11.126;2022-11-06T04:06:43;10.70;;;5.35;;
71095;SDS011;58753;49.440;11.126;2022-11-06T04:09:15;12.63;;;5.47;;
71095;SDS011;58753;49.440;11.126;2022-11-06T04:12:04;13.18;;;6.63;;
71095;SDS011;58753;49.440;11.126;2022-11-06T04:14:52;10.80;;;5.75;;
71095;SDS011;58753;49.440;11.126;2022-11-06T04:17:21;12.10;;;5.87;;
71095;SDS011;58753;49.440;11.126;2022-11-06T04:19:51;10.85;;;5.32;;
71095;SDS011;58753;49.440;11.126;2022-11-06T04:22:31;11.68;;;5.25;;
71095;SDS011;58753;49.440;11.126;2022-11-06T04:25:40;12.38;;;5.38;;
71095;SDS011;58753;49.440;11.126;2022-11-06T04:45:48;14.63;;;6.87;;
71095;SDS011;58753;49.440;11.126;2022-11-06T04:48:16;12.63;;;5.97;;
71095;SDS011;58753;49.440;11.126;2022-11-06T04:50:47;18.75;;;6.13;;
71095;SDS011;58753;49.440;11.126;2022-11-06T04:53:16;15.70;;;5.32;;
71095;SDS011;58753;49.440;11.126;2022-11-06T04:55:44;14.40;;;5.45;;
71095;SDS011;58753;49.440;11.126;2022-11-06T04:58:12;16.63;;;5.80;;
71095;SDS011;58753;49.440;11.126;2022-11-06T05:00:38;13.18;;;5.47;;
71095;SDS011;58753;49.440;11.126;2022-11-06T05:03:06;12.32;;;5.65;;
71095;SDS011;58753;49.440;11.126;2022-11-06T05:05:32;12.53;;;5.30;;
71095;SDS011;58753;49.440;11.126;2022-11-06T05:07:57;11.27;;;5.50;;
71095;SDS011;58753;49.440;11.126;2022-11-06T05:10:22;14.57;;;5.93;;
71095;SDS011;58753;49.440;11.126;2022-11-06T05:12:48;13.77;;;5.90;;
71095;SDS011;58753;49.440;11.126;2022-11-06T05:15:13;13.00;;;5.83;;
71095;SDS011;58753;49.440;11.126;2022-11-06T05:17:38;15.57;;;6.30;;
71095;SDS011;58753;49.440;11.126;2022-11-06T05:20:04;10.97;;;5.73;;
71095;SDS011;58753;49.440;11.126;2022-11-06T05:22:30;15.82;;;6.15;;
71095;SDS011;58753;49.440;11.126;2022-11-06T05:25:14;14.00;;;6.03;;
71095;SDS011;58753;49.440;11.126;2022-11-06T05:27:39;15.03;;;5.80;;
71095;SDS011;58753;49.440;11.126;2022-11-06T05:30:05;16.80;;;6.13;;
71095;SDS011;58753;49.440;11.126;2022-11-06T05:32:30;17.02;;;5.72;;
71095;SDS011;58753;49.440;11.126;2022-11-06T05:34:56;12.67;;;5.03;;
71095;SDS011;58753;49.440;11.126;2022-11-06T05:37:21;14.43;;;6.33;;
71095;SDS011;58753;49.440;11.126;2022-11-06T05:39:46;19.37;;;5.97;;
71095;SDS011;58753;49.440;11.126;2022-11-06T05:42:12;13.63;;;5.95;;
71095;SDS011;58753;49.440;11.126;2022-11-06T05:44:37;15.73;;;5.70;;
71095;SDS011;58753;49.440;11.126;2022-11-06T05:47:02;13.07;;;5.53;;
71095;SDS011;58753;49.440;11.126;2022-11-06T05:49:28;15.07;;;5.30;;
71095;SDS011;58753;49.440;11.126;2022-11-06T05:51:53;14.77;;;5.00;;
71095;SDS011;58753;49.440;11.126;2022-11-06T05:54:19;13.90;;;5.60;;
71095;SDS011;58753;49.440;11.126;2022-11-06T05:56:44;12.53;;;5.20;;
71095;SDS011;58753;49.440;11.126;2022-11-06T05:59:09;16.00;;;5.97;;
71095;SDS011;58753;49.440;11.126;2022-11-06T06:01:35;21.63;;;6.00;;
71095;SDS011;58753;49.440;11.126;2022-11-06T06:04:00;25.20;;;6.47;;
71095;SDS011;58753;49.440;11.126;2022-11-06T06:06:25;17.70;;;5.25;;
71095;SDS011;58753;49.440;11.126;2022-11-06T06:08:51;12.33;;;5.10;;
71095;SDS011;58753;49.440;11.126;2022-11-06T06:11:16;20.47;;;5.17;;
71095;SDS011;58753;49.440;11.126;2022-11-06T06:13:42;20.17;;;6.13;;
71095;SDS011;58753;49.440;11.126;2022-11-06T06:16:07;18.85;;;4.88;;
71095;SDS011;58753;49.440;11.126;2022-11-06T06:18:33;10.07;;;4.53;;
71095;SDS011;58753;49.440;11.126;2022-11-06T06:20:58;11.40;;;4.80;;
71095;SDS011;58753;49.440;11.126;2022-11-06T06:23:23;11.43;;;5.13;;
71095;SDS011;58753;49.440;11.126;2022-11-06T06:25:49;21.90;;;12.25;;
71095;SDS011;58753;49.440;11.126;2022-11-06T06:28:14;11.90;;;6.33;;
71095;SDS011;58753;49.440;11.126;2022-11-06T06:30:40;9.07;;;4.57;;
71095;SDS011;58753;49.440;11.126;2022-11-06T06:33:05;9.33;;;4.50;;
71095;SDS011;58753;49.440;11.126;2022-11-06T06:35:31;9.77;;;4.57;;
71095;SDS011;58753;49.440;11.126;2022-11-06T06:37:57;12.25;;;5.53;;
71095;SDS011;58753;49.440;11.126;2022-11-06T06:40:22;10.43;;;5.30;;
71095;SDS011;58753;49.440;11.126;2022-11-06T06:42:48;11.47;;;4.90;;
71095;SDS011;58753;49.440;11.126;2022-11-06T06:45:13;12.70;;;4.67;;
71095;SDS011;58753;49.440;11.126;2022-11-06T06:47:39;9.30;;;4.28;;
71095;SDS011;58753;49.440;11.126;2022-11-06T06:50:05;10.67;;;4.87;;
71095;SDS011;58753;49.440;11.126;2022-11-06T06:52:30;11.15;;;5.05;;
71095;SDS011;58753;49.440;11.126;2022-11-06T06:54:56;15.57;;;5.17;;
71095;SDS011;58753;49.440;11.126;2022-11-06T06:57:21;16.37;;;6.10;;
71095;SDS011;58753;49.440;11.126;2022-11-06T06:59:46;10.13;;;4.40;;
71095;SDS011;58753;49.440;11.126;2022-11-06T07:02:12;21.70;;;6.50;;
71095;SDS011;58753;49.440;11.126;2022-11-06T07:04:38;18.02;;;5.47;;
71095;SDS011;58753;49.440;11.126;2022-11-06T07:07:03;12.30;;;5.45;;
71095;SDS011;58753;49.440;11.126;2022-11-06T07:09:29;13.53;;;5.17;;
71095;SDS011;58753;49.440;11.126;2022-11-06T07:11:55;14.77;;;5.80;;
71095;SDS011;58753;49.440;11.126;2022-11-06T07:14:21;12.57;;;5.03;;
71095;SDS011;58753;49.440;11.126;2022-11-06T07:16:46;17.60;;;6.85;;
71095;SDS011;58753;49.440;11.126;2022-11-06T07:19:12;13.27;;;5.50;;
71095;SDS011;58753;49.440;11.126;2022-11-06T07:21:37;12.03;;;5.50;;
71095;SDS011;58753;49.440;11.126;2022-11-06T07:24:03;13.13;;;5.25;;
71095;SDS011;58753;49.440;11.126;2022-11-06T07:26:29;12.67;;;5.30;;
71095;SDS011;58753;49.440;11.126;2022-11-06T07:28:54;13.60;;;6.57;;
71095;SDS011;58753;49.440;11.126;2022-11-06T07:31:19;11.57;;;5.35;;
71095;SDS011;58753;49.440;11.126;2022-11-06T07:33:45;17.60;;;5.80;;
71095;SDS011;58753;49.440;11.126;2022-11-06T07:36:11;12.33;;;5.60;;
71095;SDS011;58753;49.440;11.126;2022-11-06T07:38:38;10.98;;;5.35;;
71095;SDS011;58753;49.440;11.126;2022-11-06T07:41:06;10.57;;;5.40;;
71095;SDS011;58753;49.440;11.126;2022-11-06T07:43:33;10.43;;;5.30;;
71095;SDS011;58753;49.440;11.126;2022-11-06T07:46:00;14.07;;;6.22;;
71095;SDS011;58753;49.440;11.126;2022-11-06T07:48:28;11.52;;;5.95;;
71095;SDS011;58753;49.440;11.126;2022-11-06T07:50:54;9.68;;;4.53;;
71095;SDS011;58753;49.440;11.126;2022-11-06T07:53:20;11.07;;;5.35;;
71095;SDS011;58753;49.440;11.126;2022-11-06T07:55:53;12.73;;;5.67;;
71095;SDS011;58753;49.440;11.126;2022-11-06T07:58:20;11.52;;;5.75;;
71095;SDS011;58753;49.440;11.126;2022-11-06T08:00:46;11.35;;;5.45;;
71095;SDS011;58753;49.440;11.126;2022-11-06T08:03:12;12.60;;;5.63;;
71095;SDS011;58753;49.440;11.126;2022-11-06T08:05:38;13.10;;;6.17;;
71095;SDS011;58753;49.440;11.126;2022-11-06T08:08:03;13.53;;;6.07;;
71095;SDS011;58753;49.440;11.126;2022-11-06T08:10:29;12.00;;;6.30;;
71095;SDS011;58753;49.440;11.126;2022-11-06T08:12:54;14.63;;;6.25;;
71095;SDS011;58753;49.440;11.126;2022-11-06T08:15:19;13.90;;;6.53;;
71095;SDS011;58753;49.440;11.126;2022-11-06T08:17:45;14.27;;;6.27;;
71095;SDS011;58753;49.440;11.126;2022-11-06T08:20:10;13.50;;;6.73;;
71095;SDS011;58753;49.440;11.126;2022-11-06T08:22:36;13.23;;;6.07;;
71095;SDS011;58753;49.440;11.126;2022-11-06T08:25:01;14.33;;;6.27;;
71095;SDS011;58753;49.440;11.126;2022-11-06T08:27:26;15.07;;;6.50;;
71095;SDS011;58753;49.440;11.126;2022-11-06T08:29:52;13.77;;;6.90;;
71095;SDS011;58753;49.440;11.126;2022-11-06T08:32:17;12.82;;;6.53;;
71095;SDS011;58753;49.440;11.126;2022-11-06T08:34:43;18.20;;;6.70;;
71095;SDS011;58753;49.440;11.126;2022-11-06T08:37:08;14.97;;;7.37;;
71095;SDS011;58753;49.440;11.126;2022-11-06T08:39:34;12.40;;;5.82;;
71095;SDS011;58753;49.440;11.126;2022-11-06T08:41:59;14.90;;;6.57;;
71095;SDS011;58753;49.440;11.126;2022-11-06T08:44:25;14.55;;;6.72;;
71095;SDS011;58753;49.440;11.126;2022-11-06T08:46:51;14.80;;;6.33;;
71095;SDS011;58753;49.440;11.126;2022-11-06T08:49:16;15.53;;;7.30;;
71095;SDS011;58753;49.440;11.126;2022-11-06T08:51:42;17.50;;;7.75;;
71095;SDS011;58753;49.440;11.126;2022-11-06T08:54:09;13.93;;;6.00;;
71095;SDS011;58753;49.440;11.126;2022-11-06T08:56:35;13.88;;;6.30;;
71095;SDS011;58753;49.440;11.126;2022-11-06T08:59:01;15.90;;;6.80;;
71095;SDS011;58753;49.440;11.126;2022-11-06T09:01:26;16.77;;;7.07;;
71095;SDS011;58753;49.440;11.126;2022-11-06T09:03:52;19.37;;;7.57;;
71095;SDS011;58753;49.440;11.126;2022-11-06T09:06:17;15.53;;;7.17;;
71095;SDS011;58753;49.440;11.126;2022-11-06T09:08:43;18.53;;;7.67;;
71095;SDS011;58753;49.440;11.126;2022-11-06T09:11:08;21.27;;;9.13;;
71095;SDS011;58753;49.440;11.126;2022-11-06T09:13:34;18.40;;;7.57;;
71095;SDS011;58753;49.440;11.126;2022-11-06T09:16:00;16.50;;;8.20;;
71095;SDS011;58753;49.440;11.126;2022-11-06T09:18:25;21.20;;;9.27;;
71095;SDS011;58753;49.440;11.126;2022-11-06T09:20:55;20.70;;;7.93;;
71095;SDS011;58753;49.440;11.126;2022-11-06T09:23:21;19.45;;;8.98;;
71095;SDS011;58753;49.440;11.126;2022-11-06T09:25:46;21.70;;;9.43;;
71095;SDS011;58753;49.440;11.126;2022-11-06T09:28:11;18.43;;;8.60;;
71095;SDS011;58753;49.440;11.126;2022-11-06T09:30:37;19.73;;;9.27;;
71095;SDS011;58753;49.440;11.126;2022-11-06T09:33:03;24.30;;;8.47;;
71095;SDS011;58753;49.440;11.126;2022-11-06T09:35:29;18.80;;;8.27;;
71095;SDS011;58753;49.440;11.126;2022-11-06T09:38:04;19.67;;;8.10;;
71095;SDS011;58753;49.440;11.126;2022-11-06T09:40:35;17.40;;;7.30;;
71095;SDS011;58753;49.440;11.126;2022-11-06T09:43:21;16.17;;;8.48;;
71095;SDS011;58753;49.440;11.126;2022-11-06T09:45:54;19.88;;;9.20;;
71095;SDS011;58753;49.440;11.126;2022-11-06T09:53:35;17.98;;;7.78;;
71095;SDS011;58753;49.440;11.126;2022-11-06T09:56:05;16.27;;;7.70;;
71095;SDS011;58753;49.440;11.126;2022-11-06T09:58:36;17.73;;;8.13;;
71095;SDS011;58753;49.440;11.126;2022-11-06T10:01:11;16.53;;;7.10;;
71095;SDS011;58753;49.440;11.126;2022-11-06T10:03:42;15.85;;;7.93;;
71095;SDS011;58753;49.440;11.126;2022-11-06T10:06:15;16.25;;;7.78;;
71095;SDS011;58753;49.440;11.126;2022-11-06T10:08:43;15.02;;;7.13;;
71095;SDS011;58753;49.440;11.126;2022-11-06T10:24:33;13.85;;;6.78;;
71095;SDS011;58753;49.440;11.126;2022-11-06T10:27:26;13.73;;;7.35;;
71095;SDS011;58753;49.440;11.126;2022-11-06T10:30:01;14.80;;;6.78;;
71095;SDS011;58753;49.440;11.126;2022-11-06T10:40:16;13.80;;;6.88;;
71095;SDS011;58753;49.440;11.126;2022-11-06T10:42:43;13.98;;;6.25;;
71095;SDS011;58753;49.440;11.126;2022-11-06T10:45:14;14.77;;;7.55;;
71095;SDS011;58753;49.440;11.126;2022-11-06T10:47:46;15.97;;;7.87;;
71095;SDS011;58753;49.440;11.126;2022-11-06T10:50:16;15.60;;;6.85;;
71095;SDS011;58753;49.440;11.126;2022-11-06T10:58:28;15.13;;;7.78;;
71095;SDS011;58753;49.440;11.126;2022-11-06T11:00:58;18.90;;;6.83;;
71095;SDS011;58753;49.440;11.126;2022-11-06T11:03:26;17.90;;;7.80;;
71095;SDS011;58753;49.440;11.126;2022-11-06T11:05:55;14.60;;;6.45;;
71095;SDS011;58753;49.440;11.126;2022-11-06T11:10:52;16.38;;;8.30;;
71095;SDS011;58753;49.440;11.126;2022-11-06T11:13:25;15.97;;;8.37;;
71095;SDS011;58753;49.440;11.126;2022-11-06T11:15:51;16.03;;;7.77;;
71095;SDS011;58753;49.440;11.126;2022-11-06T11:18:23;15.53;;;6.57;;
71095;SDS011;58753;49.440;11.126;2022-11-06T11:21:40;17.95;;;8.10;;
71095;SDS011;58753;49.440;11.126;2022-11-06T11:24:09;13.53;;;7.17;;
71095;SDS011;58753;49.440;11.126;2022-11-06T11:26:42;19.13;;;8.90;;
71095;SDS011;58753;49.440;11.126;2022-11-06T11:29:17;21.40;;;8.43;;
71095;SDS011;58753;49.440;11.126;2022-11-06T11:32:15;18.55;;;8.70;;
71095;SDS011;58753;49.440;11.126;2022-11-06T11:34:44;18.17;;;7.80;;
71095;SDS011;58753;49.440;11.126;2022-11-06T11:37:26;14.97;;;8.33;;
71095;SDS011;58753;49.440;11.126;2022-11-06T11:39:52;18.35;;;8.90;;
71095;SDS011;58753;49.440;11.126;2022-11-06T11:44:48;15.10;;;7.07;;
71095;SDS011;58753;49.440;11.126;2022-11-06T11:47:36;15.85;;;7.63;;
71095;SDS011;58753;49.440;11.126;2022-11-06T11:52:40;19.33;;;8.55;;
71095;SDS011;58753;49.440;11.126;2022-11-06T11:55:14;13.07;;;7.43;;
71095;SDS011;58753;49.440;11.126;2022-11-06T11:57:42;14.20;;;6.50;;
71095;SDS011;58753;49.440;11.126;2022-11-06T12:00:14;18.13;;;8.05;;
71095;SDS011;58753;49.440;11.126;2022-11-06T12:02:43;13.20;;;6.97;;
71095;SDS011;58753;49.440;11.126;2022-11-06T12:05:17;15.30;;;7.18;;
71095;SDS011;58753;49.440;11.126;2022-11-06T12:07:46;14.98;;;7.20;;
71095;SDS011;58753;49.440;11.126;2022-11-06T12:12:50;13.88;;;6.63;;
71095;SDS011;58753;49.440;11.126;2022-11-06T12:18:04;16.70;;;6.78;;
71095;SDS011;58753;49.440;11.126;2022-11-06T12:23:08;14.10;;;7.05;;
71095;SDS011;58753;49.440;11.126;2022-11-06T12:25:40;15.13;;;6.70;;
71095;SDS011;58753;49.440;11.126;2022-11-06T12:28:15;13.60;;;6.53;;
71095;SDS011;58753;49.440;11.126;2022-11-06T12:30:44;11.80;;;6.63;;
71095;SDS011;58753;49.440;11.126;2022-11-06T12:33:14;15.93;;;6.57;;
71095;SDS011;58753;49.440;11.126;2022-11-06T12:35:44;12.88;;;6.65;;
71095;SDS011;58753;49.440;11.126;2022-11-06T12:43:30;13.57;;;6.53;;
71095;SDS011;58753;49.440;11.126;2022-11-06T12:46:13;14.57;;;7.10;;
71095;SDS011;58753;49.440;11.126;2022-11-06T12:52:22;13.23;;;5.43;;
71095;SDS011;58753;49.440;11.126;2022-11-06T13:00:22;14.35;;;5.93;;
71095;SDS011;58753;49.440;11.126;2022-11-06T13:05:54;11.00;;;6.03;;
71095;SDS011;58753;49.440;11.126;2022-11-06T13:13:44;9.95;;;5.03;;
71095;SDS011;58753;49.440;11.126;2022-11-06T13:16:24;10.63;;;5.82;;
71095;SDS011;58753;49.440;11.126;2022-11-06T13:18:59;12.52;;;5.07;;
71095;SDS011;58753;49.440;11.126;2022-11-06T13:24:31;11.02;;;4.60;;
71095;SDS011;58753;49.440;11.126;2022-11-06T13:27:12;12.05;;;5.20;;
71095;SDS011;58753;49.440;11.126;2022-11-06T13:29:45;11.32;;;6.13;;
71095;SDS011;58753;49.440;11.126;2022-11-06T13:32:12;12.97;;;5.77;;
71095;SDS011;58753;49.440;11.126;2022-11-06T13:34:41;11.73;;;5.75;;
71095;SDS011;58753;49.440;11.126;2022-11-06T13:37:16;11.98;;;6.13;;
71095;SDS011;58753;49.440;11.126;2022-11-06T13:39:52;11.67;;;5.47;;
71095;SDS011;58753;49.440;11.126;2022-11-06T13:42:34;8.77;;;4.40;;
71095;SDS011;58753;49.440;11.126;2022-11-06T13:45:06;10.38;;;5.18;;
71095;SDS011;58753;49.440;11.126;2022-11-06T13:53:09;13.40;;;5.70;;
71095;SDS011;58753;49.440;11.126;2022-11-06T13:55:48;10.88;;;5.70;;
71095;SDS011;58753;49.440;11.126;2022-11-06T13:58:33;11.02;;;5.95;;
71095;SDS011;58753;49.440;11.126;2022-11-06T14:06:51;10.90;;;5.50;;
71095;SDS011;58753;49.440;11.126;2022-11-06T14:09:23;12.43;;;5.88;;
71095;SDS011;58753;49.440;11.126;2022-11-06T14:11:51;12.35;;;6.40;;
71095;SDS011;58753;49.440;11.126;2022-11-06T14:14:23;12.15;;;6.43;;
71095;SDS011;58753;49.440;11.126;2022-11-06T14:19:38;12.50;;;6.27;;
71095;SDS011;58753;49.440;11.126;2022-11-06T14:24:33;14.35;;;7.22;;
71095;SDS011;58753;49.440;11.126;2022-11-06T14:27:00;13.60;;;6.93;;
71095;SDS011;58753;49.440;11.126;2022-11-06T14:31:57;11.57;;;6.30;;
71095;SDS011;58753;49.440;11.126;2022-11-06T14:34:30;11.07;;;5.95;;
71095;SDS011;58753;49.440;11.126;2022-11-06T14:36:57;12.53;;;5.87;;
71095;SDS011;58753;49.440;11.126;2022-11-06T14:42:38;13.53;;;5.23;;
71095;SDS011;58753;49.440;11.126;2022-11-06T14:45:14;12.75;;;6.15;;
71095;SDS011;58753;49.440;11.126;2022-11-06T14:50:26;14.67;;;6.73;;
71095;SDS011;58753;49.440;11.126;2022-11-06T14:52:59;13.57;;;6.47;;
71095;SDS011;58753;49.440;11.126;2022-11-06T14:55:39;14.40;;;6.50;;
71095;SDS011;58753;49.440;11.126;2022-11-06T14:58:22;13.30;;;6.80;;
71095;SDS011;58753;49.440;11.126;2022-11-06T15:05:58;13.60;;;6.50;;
71095;SDS011;58753;49.440;11.126;2022-11-06T15:13:53;14.80;;;6.33;;
71095;SDS011;58753;49.440;11.126;2022-11-06T15:16:19;15.63;;;6.97;;
71095;SDS011;58753;49.440;11.126;2022-11-06T15:18:45;14.30;;;7.07;;
71095;SDS011;58753;49.440;11.126;2022-11-06T15:21:14;16.03;;;7.10;;
71095;SDS011;58753;49.440;11.126;2022-11-06T15:23:53;15.45;;;7.07;;
71095;SDS011;58753;49.440;11.126;2022-11-06T15:31:23;24.20;;;10.80;;
71095;SDS011;58753;49.440;11.126;2022-11-06T15:33:59;22.52;;;12.18;;
71095;SDS011;58753;49.440;11.126;2022-11-06T15:36:28;19.60;;;9.93;;
71095;SDS011;58753;49.440;11.126;2022-11-06T15:38:58;17.08;;;9.20;;
71095;SDS011;58753;49.440;11.126;2022-11-06T15:41:24;17.65;;;9.93;;
71095;SDS011;58753;49.440;11.126;2022-11-06T15:43:51;21.00;;;7.32;;
71095;SDS011;58753;49.440;11.126;2022-11-06T15:46:23;18.60;;;9.05;;
71095;SDS011;58753;49.440;11.126;2022-11-06T15:51:48;13.27;;;7.30;;
71095;SDS011;58753;49.440;11.126;2022-11-06T15:54:28;15.63;;;7.85;;
71095;SDS011;58753;49.440;11.126;2022-11-06T15:57:05;16.33;;;8.95;;
71095;SDS011;58753;49.440;11.126;2022-11-06T15:59:38;22.17;;;11.07;;
71095;SDS011;58753;49.440;11.126;2022-11-06T16:02:04;16.70;;;9.03;;
71095;SDS011;58753;49.440;11.126;2022-11-06T16:04:37;16.23;;;8.45;;
71095;SDS011;58753;49.440;11.126;2022-11-06T16:07:03;14.97;;;7.83;;
71095;SDS011;58753;49.440;11.126;2022-11-06T16:09:29;14.23;;;7.88;;
71095;SDS011;58753;49.440;11.126;2022-11-06T16:11:55;15.67;;;7.60;;
71095;SDS011;58753;49.440;11.126;2022-11-06T16:14:22;23.15;;;9.82;;
71095;SDS011;58753;49.440;11.126;2022-11-06T16:16:49;19.58;;;9.85;;
71095;SDS011;58753;49.440;11.126;2022-11-06T16:21:49;18.38;;;9.75;;
71095;SDS011;58753;49.440;11.126;2022-11-06T16:24:18;17.05;;;8.70;;
71095;SDS011;58753;49.440;11.126;2022-11-06T16:26:45;14.97;;;7.73;;
71095;SDS011;58753;49.440;11.126;2022-11-06T16:29:22;16.33;;;8.20;;
71095;SDS011;58753;49.440;11.126;2022-11-06T16:31:58;16.63;;;8.40;;
71095;SDS011;58753;49.440;11.126;2022-11-06T16:39:32;14.80;;;9.07;;
71095;SDS011;58753;49.440;11.126;2022-11-06T16:42:18;14.05;;;8.07;;
71095;SDS011;58753;49.440;11.126;2022-11-06T16:44:59;12.27;;;7.45;;
71095;SDS011;58753;49.440;11.126;2022-11-06T16:50:41;18.45;;;8.27;;
71095;SDS011;58753;49.440;11.126;2022-11-06T16:53:18;15.67;;;7.93;;
71095;SDS011;58753;49.440;11.126;2022-11-06T16:55:51;14.23;;;7.57;;
71095;SDS011;58753;49.440;11.126;2022-11-06T16:58:20;13.77;;;8.02;;
71095;SDS011;58753;49.440;11.126;2022-11-06T17:00:53;15.27;;;7.28;;
71095;SDS011;58753;49.440;11.126;2022-11-06T17:03:20;15.10;;;7.20;;
71095;SDS011;58753;49.440;11.126;2022-11-06T17:05:50;15.00;;;8.47;;
71095;SDS011;58753;49.440;11.126;2022-11-06T17:10:49;60.55;;;22.35;;
71095;SDS011;58753;49.440;11.126;2022-11-06T17:13:26;88.55;;;37.55;;
71095;SDS011;58753;49.440;11.126;2022-11-06T17:16:02;55.22;;;22.27;;
71095;SDS011;58753;49.440;11.126;2022-11-06T17:18:33;39.67;;;17.83;;
71095;SDS011;58753;49.440;11.126;2022-11-06T17:21:00;28.02;;;12.32;;
71095;SDS011;58753;49.440;11.126;2022-11-06T17:23:29;18.13;;;9.48;;